createdAt,value
2022-12-19T00:00:34.884Z,14.55
2022-12-19T00:03:03.012Z,13.73
2022-12-19T00:05:32.227Z,14.63
2022-12-19T00:08:02.446Z,14.13
2022-12-19T00:10:40.136Z,16.20
2022-12-19T00:13:08.027Z,13.23
2022-12-19T00:15:37.228Z,14.57
2022-12-19T00:18:11.080Z,14.77
2022-12-19T00:20:48.420Z,13.45
2022-12-19T00:23:17.277Z,13.80
2022-12-19T00:25:48.007Z,13.43
2022-12-19T00:28:19.666Z,13.50
2022-12-19T00:30:49.591Z,14.40
2022-12-19T00:33:23.287Z,14.75
2022-12-19T00:35:57.986Z,11.70
2022-12-19T00:38:25.786Z,13.30
2022-12-19T00:40:53.556Z,13.90
2022-12-19T00:43:22.187Z,14.57
2022-12-19T00:45:50.078Z,14.93
2022-12-19T00:48:17.846Z,14.50
2022-12-19T00:50:46.890Z,13.95
2022-12-19T00:53:16.197Z,13.38
2022-12-19T00:55:43.945Z,13.23
2022-12-19T00:58:11.723Z,14.45
2022-12-19T01:00:39.575Z,14.82
2022-12-19T01:03:10.075Z,14.48
2022-12-19T01:05:38.833Z,14.65
2022-12-19T01:08:09.980Z,13.68
2022-12-19T01:10:39.381Z,14.02
2022-12-19T01:13:06.130Z,12.43
2022-12-19T01:15:33.892Z,15.65
2022-12-19T01:18:01.693Z,13.27
2022-12-19T01:20:30.138Z,13.85
2022-12-19T01:23:00.133Z,12.82
2022-12-19T01:25:28.598Z,13.27
2022-12-19T01:27:58.466Z,13.05
2022-12-19T01:30:27.670Z,14.20
2022-12-19T01:32:58.688Z,12.52
2022-12-19T01:35:26.874Z,13.77
2022-12-19T01:38:07.613Z,13.07
2022-12-19T01:40:36.548Z,12.93
2022-12-19T01:43:06.669Z,13.90
2022-12-19T01:45:38.361Z,13.88
2022-12-19T01:48:18.490Z,14.77
2022-12-19T01:51:00.798Z,12.55
2022-12-19T01:53:34.933Z,12.68
2022-12-19T01:56:08.913Z,13.63
2022-12-19T01:58:40.993Z,13.48
2022-12-19T02:01:08.973Z,14.63
2022-12-19T02:03:38.980Z,12.18
2022-12-19T02:06:08.161Z,13.57
2022-12-19T02:08:36.882Z,12.52
2022-12-19T02:11:04.615Z,14.13
2022-12-19T02:13:32.697Z,12.40
2022-12-19T02:16:08.989Z,12.88
2022-12-19T02:18:49.312Z,14.05
2022-12-19T02:21:25.724Z,12.98
2022-12-19T02:24:43.310Z,13.38
2022-12-19T02:27:56.295Z,15.40
2022-12-19T02:30:46.395Z,12.82
2022-12-19T02:33:19.210Z,13.98
2022-12-19T02:36:03.583Z,13.52
2022-12-19T02:38:37.726Z,12.88
2022-12-19T02:41:09.690Z,13.63
2022-12-19T02:43:43.688Z,14.60
2022-12-19T02:46:13.769Z,14.88
2022-12-19T02:48:43.187Z,15.13
2022-12-19T02:51:11.095Z,12.65
2022-12-19T02:53:39.730Z,14.00
2022-12-19T02:56:30.042Z,14.02
2022-12-19T02:59:14.886Z,14.85
2022-12-19T03:01:50.242Z,13.43
2022-12-19T03:04:32.829Z,13.60
2022-12-19T03:07:04.789Z,14.27
2022-12-19T03:09:42.086Z,15.02
2022-12-19T03:12:17.577Z,13.13
2022-12-19T03:14:48.108Z,15.15
2022-12-19T03:17:23.166Z,14.52
2022-12-19T03:19:51.261Z,14.85
2022-12-19T03:22:19.205Z,14.45
2022-12-19T03:24:47.113Z,14.38
2022-12-19T03:27:21.646Z,15.73
2022-12-19T03:29:57.156Z,16.38
2022-12-19T03:32:29.388Z,14.90
2022-12-19T03:35:01.722Z,14.05
2022-12-19T03:37:33.303Z,15.95
2022-12-19T03:40:06.267Z,16.10
2022-12-19T03:42:54.031Z,15.85
2022-12-19T03:45:29.003Z,15.20
2022-12-19T03:48:01.373Z,16.08
2022-12-19T03:50:34.197Z,14.68
2022-12-19T03:53:13.254Z,16.63
2022-12-19T03:55:49.173Z,15.70
2022-12-19T03:58:21.931Z,16.10
2022-12-19T04:00:53.247Z,15.68
2022-12-19T04:03:23.683Z,15.48
2022-12-19T04:05:53.688Z,16.83
2022-12-19T04:08:22.898Z,15.23
2022-12-19T04:10:55.664Z,16.17
2022-12-19T04:13:31.405Z,15.15
2022-12-19T04:16:07.826Z,16.35
2022-12-19T04:18:38.690Z,12.32
2022-12-19T04:21:12.765Z,15.45
2022-12-19T04:23:44.850Z,15.75
2022-12-19T04:26:14.893Z,16.35
2022-12-19T04:28:47.848Z,15.98
2022-12-19T04:31:17.478Z,16.38
2022-12-19T04:33:46.664Z,15.38
2022-12-19T04:36:14.641Z,15.90
2022-12-19T04:38:42.356Z,15.20
2022-12-19T04:41:10.423Z,16.52
2022-12-19T04:43:38.203Z,17.52
2022-12-19T04:46:06.490Z,15.95
2022-12-19T04:48:36.366Z,16.83
2022-12-19T04:51:05.919Z,16.15
2022-12-19T04:53:34.400Z,15.88
2022-12-19T04:56:02.948Z,15.25
2022-12-19T04:58:31.113Z,15.27
2022-12-19T05:01:02.495Z,15.07
2022-12-19T05:03:30.371Z,16.10
2022-12-19T05:06:07.293Z,16.23
2022-12-19T05:08:36.167Z,15.40
2022-12-19T05:11:05.422Z,16.27
2022-12-19T05:13:34.168Z,15.13
2022-12-19T05:16:03.798Z,15.65
2022-12-19T05:18:32.337Z,16.88
2022-12-19T05:21:00.619Z,15.20
2022-12-19T05:23:29.908Z,15.43
2022-12-19T05:25:59.401Z,16.33
2022-12-19T05:28:28.250Z,15.30
2022-12-19T05:31:03.746Z,15.27
2022-12-19T05:33:31.922Z,15.25
2022-12-19T05:35:59.673Z,15.02
2022-12-19T05:38:29.553Z,15.10
2022-12-19T05:40:57.430Z,16.30
2022-12-19T05:43:25.761Z,16.35
2022-12-19T05:45:53.616Z,16.38
2022-12-19T05:48:21.452Z,15.80
2022-12-19T05:50:50.468Z,15.90
2022-12-19T05:53:21.934Z,15.05
2022-12-19T05:56:03.763Z,15.05
2022-12-19T05:58:31.796Z,14.48
2022-12-19T06:01:03.753Z,15.07
2022-12-19T06:03:31.806Z,13.70
2022-12-19T06:06:02.815Z,15.73
2022-12-19T06:08:30.967Z,15.30
2022-12-19T06:11:01.664Z,17.80
2022-12-19T06:13:29.925Z,15.18
2022-12-19T06:16:00.987Z,15.82
2022-12-19T06:18:29.456Z,14.80
2022-12-19T06:21:01.240Z,15.88
2022-12-19T06:23:30.495Z,16.10
2022-12-19T06:25:58.553Z,13.90
2022-12-19T06:28:29.014Z,15.40
2022-12-19T06:30:57.258Z,14.98
2022-12-19T06:33:25.179Z,14.63
2022-12-19T06:35:59.172Z,15.43
2022-12-19T06:38:27.129Z,13.90
2022-12-19T06:41:12.440Z,15.40
2022-12-19T06:43:42.252Z,14.05
2022-12-19T06:46:10.790Z,14.60
2022-12-19T06:48:38.849Z,14.35
2022-12-19T06:51:07.440Z,14.40
2022-12-19T06:53:35.429Z,14.07
2022-12-19T06:56:03.436Z,16.05
2022-12-19T06:58:31.536Z,13.70
2022-12-19T07:01:01.427Z,14.93
2022-12-19T07:03:32.924Z,14.02
2022-12-19T07:06:00.670Z,15.13
2022-12-19T07:08:29.567Z,14.32
2022-12-19T07:10:57.645Z,16.83
2022-12-19T07:13:25.896Z,14.40
2022-12-19T07:15:55.705Z,13.38
2022-12-19T07:18:25.004Z,14.57
2022-12-19T07:20:53.122Z,13.57
2022-12-19T07:23:23.154Z,14.85
2022-12-19T07:25:51.656Z,15.10
2022-12-19T07:28:19.998Z,15.35
2022-12-19T07:30:50.029Z,14.23
2022-12-19T07:33:21.444Z,15.60
2022-12-19T07:35:52.267Z,14.68
2022-12-19T07:38:21.051Z,15.82
2022-12-19T07:40:48.894Z,14.18
2022-12-19T07:43:16.930Z,14.98
2022-12-19T07:45:45.103Z,15.32
2022-12-19T07:48:13.113Z,14.43
2022-12-19T07:50:41.766Z,15.02
2022-12-19T07:53:11.156Z,15.32
2022-12-19T07:55:39.229Z,13.90
2022-12-19T07:58:09.499Z,15.05
2022-12-19T08:00:38.867Z,14.00
2022-12-19T08:03:07.053Z,15.13
2022-12-19T08:05:35.869Z,14.48
2022-12-19T08:08:04.266Z,15.32
2022-12-19T08:10:33.757Z,14.75
2022-12-19T08:13:01.695Z,14.40
2022-12-19T08:15:29.679Z,12.48
2022-12-19T08:17:57.762Z,14.45
2022-12-19T08:20:25.689Z,13.00
2022-12-19T08:22:53.915Z,15.07
2022-12-19T08:25:22.159Z,20.25
2022-12-19T08:27:51.449Z,15.70
2022-12-19T08:30:19.866Z,13.95
2022-12-19T08:32:48.452Z,13.27
2022-12-19T08:35:16.511Z,13.13
2022-12-19T08:37:44.634Z,14.98
2022-12-19T08:40:13.945Z,14.20
2022-12-19T08:42:42.543Z,12.63
2022-12-19T08:45:12.133Z,14.65
2022-12-19T08:47:40.309Z,14.52
2022-12-19T08:50:09.375Z,14.20
2022-12-19T08:52:37.226Z,17.92
2022-12-19T08:55:06.299Z,15.85
2022-12-19T08:57:37.215Z,14.80
2022-12-19T09:00:06.562Z,13.93
2022-12-19T09:02:37.266Z,14.75
2022-12-19T09:06:01.765Z,14.93
2022-12-19T09:07:56.749Z,14.68
2022-12-19T09:10:24.709Z,14.25
2022-12-19T09:12:57.706Z,13.52
2022-12-19T09:15:26.071Z,14.60
2022-12-19T09:17:55.543Z,13.60
2022-12-19T09:20:23.895Z,14.07
2022-12-19T09:22:51.991Z,13.32
2022-12-19T09:25:19.908Z,15.82
2022-12-19T09:28:25.833Z,12.85
2022-12-19T09:30:36.180Z,13.68
2022-12-19T09:33:06.062Z,13.57
2022-12-19T09:35:34.109Z,13.68
2022-12-19T09:38:03.578Z,14.15
2022-12-19T09:40:46.386Z,13.13
2022-12-19T09:43:36.557Z,12.98
2022-12-19T09:46:16.441Z,14.77
2022-12-19T09:48:52.586Z,13.75
2022-12-19T09:51:33.434Z,13.73
2022-12-19T09:54:10.708Z,15.75
2022-12-19T09:56:46.343Z,14.25
2022-12-19T09:59:22.604Z,12.82
2022-12-19T10:01:59.822Z,13.80
2022-12-19T10:04:34.389Z,15.07
2022-12-19T10:07:22.272Z,13.80
2022-12-19T10:12:41.187Z,13.40
2022-12-19T10:13:12.923Z,13.13
2022-12-19T10:15:56.141Z,13.57
2022-12-19T10:18:45.024Z,13.90
2022-12-19T10:21:50.826Z,13.43
2022-12-19T10:24:34.750Z,14.48
2022-12-19T10:27:12.982Z,15.55
2022-12-19T10:29:58.055Z,14.98
2022-12-19T10:32:33.548Z,14.23
2022-12-19T10:35:02.066Z,18.57
2022-12-19T10:37:47.290Z,15.53
2022-12-19T10:40:28.272Z,13.77
2022-12-19T10:43:05.259Z,14.32
2022-12-19T10:45:46.867Z,13.52
2022-12-19T10:48:20.888Z,14.18
2022-12-19T10:50:56.536Z,13.77
2022-12-19T10:53:30.206Z,15.07
2022-12-19T10:56:02.045Z,13.80
2022-12-19T10:58:35.221Z,12.70
2022-12-19T11:01:13.167Z,12.73
2022-12-19T11:03:43.848Z,13.13
2022-12-19T11:06:47.486Z,13.57
2022-12-19T11:09:27.323Z,12.97
2022-12-19T11:15:49.474Z,12.93
2022-12-19T11:19:47.335Z,13.60
2022-12-19T11:24:17.349Z,12.97
2022-12-19T11:29:26.190Z,14.73
2022-12-19T11:29:32.145Z,12.90
2022-12-19T11:29:44.432Z,14.50
2022-12-19T11:31:51.041Z,13.53
2022-12-19T11:32:44.574Z,13.80
2022-12-19T11:35:21.974Z,13.37
2022-12-19T11:37:57.541Z,15.27
2022-12-19T11:40:33.861Z,13.57
2022-12-19T11:43:43.025Z,13.77
2022-12-19T11:46:04.035Z,13.30
2022-12-19T11:48:40.943Z,15.57
2022-12-19T11:51:21.005Z,13.80
2022-12-19T11:53:57.455Z,14.10
2022-12-19T11:56:27.892Z,15.00
2022-12-19T11:59:01.194Z,12.77
2022-12-19T12:01:48.463Z,13.67
2022-12-19T12:04:56.111Z,13.60
2022-12-19T12:07:56.632Z,14.50
2022-12-19T12:13:22.347Z,12.60
2022-12-19T12:28:29.190Z,12.97
2022-12-19T12:28:37.591Z,15.30
2022-12-19T12:31:09.555Z,14.47
2022-12-19T12:31:13.160Z,12.60
2022-12-19T12:31:44.721Z,12.80
2022-12-19T12:32:00.729Z,13.30
2022-12-19T12:35:33.125Z,13.30
2022-12-19T12:38:18.916Z,13.63
2022-12-19T12:40:53.498Z,16.13
2022-12-19T12:43:36.604Z,15.37
2022-12-19T12:46:05.579Z,14.27
2022-12-19T12:48:39.955Z,14.60
2022-12-19T12:51:10.368Z,13.40
2022-12-19T12:53:41.908Z,13.87
2022-12-19T12:56:13.422Z,14.60
2022-12-19T12:59:06.927Z,14.10
2022-12-19T13:01:38.052Z,14.83
2022-12-19T13:04:22.638Z,15.07
2022-12-19T13:07:24.105Z,13.33
2022-12-19T13:10:08.419Z,16.90
2022-12-19T13:13:00.794Z,14.13
2022-12-19T13:15:37.327Z,13.93
2022-12-19T13:18:29.992Z,19.13
2022-12-19T13:21:03.114Z,14.63
2022-12-19T13:23:47.502Z,13.87
2022-12-19T13:26:44.875Z,14.93
2022-12-19T13:29:28.445Z,15.33
2022-12-19T13:32:13.410Z,13.90
2022-12-19T13:35:06.287Z,13.90
2022-12-19T13:39:54.016Z,13.10
2022-12-19T13:40:35.557Z,14.87
2022-12-19T13:43:32.208Z,14.93
2022-12-19T13:46:02.469Z,12.77
2022-12-19T13:48:33.080Z,13.67
2022-12-19T13:51:05.444Z,14.87
2022-12-19T13:53:36.366Z,14.23
2022-12-19T13:56:06.625Z,16.00
2022-12-19T13:58:46.631Z,16.77
2022-12-19T14:01:21.021Z,14.27
2022-12-19T14:03:51.578Z,14.87
2022-12-19T14:06:22.528Z,16.57
2022-12-19T14:09:37.377Z,16.73
2022-12-19T14:13:38.786Z,12.03
2022-12-19T14:15:13.373Z,15.53
2022-12-19T14:17:41.814Z,15.30
2022-12-19T14:22:07.079Z,15.53
2022-12-19T14:23:07.501Z,16.00
2022-12-19T14:28:14.383Z,17.10
2022-12-19T14:28:41.523Z,16.23
2022-12-19T14:31:15.597Z,16.63
2022-12-19T14:34:04.694Z,15.57
2022-12-19T14:36:39.048Z,17.97
2022-12-19T14:39:23.964Z,17.80
2022-12-19T14:42:56.997Z,18.13
2022-12-19T14:52:34.499Z,44.53
2022-12-19T14:54:03.491Z,19.60
2022-12-19T14:54:07.520Z,15.67
2022-12-19T14:57:28.972Z,16.73
2022-12-19T15:00:50.875Z,15.70
2022-12-19T15:03:23.111Z,19.03
2022-12-19T15:05:52.054Z,21.33
2022-12-19T15:10:07.482Z,17.63
2022-12-19T15:11:58.123Z,18.17
2022-12-19T15:14:56.456Z,16.40
2022-12-19T15:17:27.716Z,18.87
2022-12-19T15:19:56.261Z,18.83
2022-12-19T15:22:25.524Z,16.87
2022-12-19T15:24:54.242Z,18.20
2022-12-19T15:27:23.186Z,17.13
2022-12-19T15:29:53.370Z,18.47
2022-12-19T15:32:21.663Z,18.43
2022-12-19T15:34:51.613Z,17.00
2022-12-19T15:37:20.088Z,18.40
2022-12-19T15:39:47.941Z,18.47
2022-12-19T15:42:19.969Z,20.90
2022-12-19T15:44:49.820Z,21.23
2022-12-19T15:47:22.985Z,17.57
2022-12-19T15:49:51.192Z,18.50
2022-12-19T15:52:20.833Z,18.33
2022-12-19T15:54:50.536Z,18.43
2022-12-19T15:57:25.540Z,18.70
2022-12-19T15:59:53.755Z,18.03
2022-12-19T16:02:24.811Z,17.27
2022-12-19T16:04:58.339Z,20.33
2022-12-19T16:07:31.704Z,16.40
2022-12-19T16:09:59.681Z,18.50
2022-12-19T16:12:37.906Z,18.10
2022-12-19T16:15:07.888Z,17.90
2022-12-19T16:17:38.475Z,18.50
2022-12-19T16:20:16.789Z,18.13
2022-12-19T16:22:47.978Z,19.53
2022-12-19T16:25:16.519Z,28.37
2022-12-19T16:27:45.953Z,20.10
2022-12-19T16:30:23.363Z,18.37
2022-12-19T16:32:52.669Z,18.87
2022-12-19T16:35:40.320Z,17.90
2022-12-19T16:38:10.363Z,19.70
2022-12-19T16:40:38.449Z,25.30
2022-12-19T16:43:07.965Z,20.50
2022-12-19T16:45:36.354Z,20.90
2022-12-19T16:48:19.357Z,18.07
2022-12-19T16:50:47.470Z,21.27
2022-12-19T16:53:16.491Z,19.57
2022-12-19T16:55:45.575Z,19.60
2022-12-19T16:58:17.664Z,21.33
2022-12-19T17:00:46.363Z,38.87
2022-12-19T17:03:28.774Z,19.90
2022-12-19T17:05:57.530Z,19.73
2022-12-19T17:08:25.776Z,18.10
2022-12-19T17:10:54.698Z,19.27
2022-12-19T17:13:23.624Z,19.23
2022-12-19T17:15:56.653Z,18.50
2022-12-19T17:18:32.867Z,21.17
2022-12-19T17:21:15.040Z,19.07
2022-12-19T17:23:49.712Z,18.23
2022-12-19T17:26:21.211Z,19.07
2022-12-19T17:29:01.177Z,18.03
2022-12-19T17:31:30.283Z,18.47
2022-12-19T17:34:47.976Z,18.53
2022-12-19T17:37:23.017Z,18.10
2022-12-19T17:39:54.402Z,18.90
2022-12-19T17:42:35.317Z,19.33
2022-12-19T17:45:06.092Z,19.20
2022-12-19T17:50:39.598Z,20.70
2022-12-19T17:53:13.148Z,18.37
2022-12-19T17:58:52.508Z,21.17
2022-12-19T18:01:22.856Z,20.90
2022-12-19T18:03:53.404Z,19.13
2022-12-19T18:06:23.041Z,19.37
2022-12-19T18:08:53.642Z,22.13
2022-12-19T18:11:24.541Z,19.37
2022-12-19T18:13:53.441Z,20.20
2022-12-19T18:16:25.875Z,19.93
2022-12-19T18:18:54.860Z,20.70
2022-12-19T18:21:27.534Z,19.87
2022-12-19T18:23:55.747Z,19.70
2022-12-19T18:26:23.997Z,18.47
2022-12-19T18:28:52.055Z,19.27
2022-12-19T18:31:25.891Z,21.58
2022-12-19T18:34:06.967Z,20.40
2022-12-19T18:36:41.165Z,19.93
2022-12-19T18:39:20.492Z,19.73
2022-12-19T18:41:48.681Z,19.53
2022-12-19T18:44:16.844Z,20.57
2022-12-19T18:46:45.305Z,19.40
2022-12-19T18:49:14.705Z,19.13
2022-12-19T18:51:44.842Z,19.67
2022-12-19T18:54:17.689Z,17.90
2022-12-19T18:56:46.259Z,17.73
2022-12-19T18:59:14.484Z,19.70
2022-12-19T19:01:47.401Z,18.40
2022-12-19T19:04:17.889Z,19.00
2022-12-19T19:06:52.004Z,19.33
2022-12-19T19:09:31.988Z,18.80
2022-12-19T19:11:59.875Z,21.83
2022-12-19T19:14:27.857Z,18.87
2022-12-19T19:16:56.072Z,20.20
2022-12-19T19:19:24.299Z,19.03
2022-12-19T19:21:53.436Z,19.77
2022-12-19T19:24:23.575Z,20.20
2022-12-19T19:26:51.529Z,19.37
2022-12-19T19:29:20.217Z,19.50
2022-12-19T19:31:51.393Z,19.17
2022-12-19T19:34:22.808Z,18.97
2022-12-19T19:36:56.240Z,19.60
2022-12-19T19:39:25.185Z,19.10
2022-12-19T19:41:53.650Z,20.33
2022-12-19T19:44:21.563Z,27.13
2022-12-19T19:46:49.944Z,17.77
2022-12-19T19:49:18.069Z,20.27
2022-12-19T19:51:46.190Z,19.03
2022-12-19T19:54:15.803Z,17.83
2022-12-19T19:56:43.811Z,18.53
2022-12-19T19:59:12.352Z,18.77
2022-12-19T20:01:40.530Z,18.93
2022-12-19T20:04:08.820Z,18.87
2022-12-19T20:06:37.132Z,18.93
2022-12-19T20:09:05.848Z,19.37
2022-12-19T20:11:35.185Z,18.33
2022-12-19T20:14:04.750Z,19.07
2022-12-19T20:16:33.653Z,18.20
2022-12-19T20:19:01.713Z,18.07
2022-12-19T20:21:30.773Z,22.03
2022-12-19T20:23:59.004Z,18.80
2022-12-19T20:26:29.393Z,18.70
2022-12-19T20:28:58.969Z,16.23
2022-12-19T20:31:27.400Z,17.27
2022-12-19T20:33:56.878Z,18.03
2022-12-19T20:36:25.459Z,18.70
2022-12-19T20:38:53.596Z,18.43
2022-12-19T20:41:21.771Z,17.63
2022-12-19T20:43:49.649Z,19.10
2022-12-19T20:46:23.425Z,18.80
2022-12-19T20:48:52.453Z,19.17
2022-12-19T20:51:22.202Z,18.10
2022-12-19T20:53:55.674Z,18.80
2022-12-19T20:56:27.849Z,19.20
2022-12-19T20:58:56.016Z,17.57
2022-12-19T21:01:26.708Z,17.47
2022-12-19T21:03:55.442Z,18.03
2022-12-19T21:06:27.492Z,20.07
2022-12-19T21:08:56.342Z,17.60
2022-12-19T21:11:24.971Z,21.03
2022-12-19T21:13:53.360Z,18.63
2022-12-19T21:16:23.746Z,17.80
2022-12-19T21:18:58.895Z,18.13
2022-12-19T21:21:27.973Z,18.20
2022-12-19T21:23:57.281Z,17.87
2022-12-19T21:26:26.811Z,17.93
2022-12-19T21:28:57.911Z,15.93
2022-12-19T21:31:28.733Z,16.60
2022-12-19T21:34:00.376Z,16.90
2022-12-19T21:36:29.994Z,17.93
2022-12-19T21:39:00.152Z,16.03
2022-12-19T21:41:28.300Z,17.97
2022-12-19T21:44:00.816Z,20.03
2022-12-19T21:46:33.495Z,17.37
2022-12-19T21:49:03.231Z,17.40
2022-12-19T21:51:33.320Z,15.87
2022-12-19T21:54:02.788Z,17.03
2022-12-19T21:56:40.794Z,16.30
2022-12-19T21:59:12.319Z,18.17
2022-12-19T22:01:41.478Z,19.43
2022-12-19T22:04:13.976Z,19.43
2022-12-19T22:06:42.255Z,17.93
2022-12-19T22:09:14.107Z,17.40
2022-12-19T22:11:44.451Z,17.10
2022-12-19T22:14:13.748Z,18.17
2022-12-19T22:16:42.296Z,17.27
2022-12-19T22:19:13.654Z,16.57
2022-12-19T22:21:41.932Z,16.63
2022-12-19T22:24:13.278Z,16.80
2022-12-19T22:26:41.327Z,17.37
2022-12-19T22:29:10.740Z,16.57
2022-12-19T22:31:39.847Z,17.03
2022-12-19T22:34:10.775Z,17.57
2022-12-19T22:36:45.115Z,17.97
2022-12-19T22:39:14.757Z,17.00
2022-12-19T22:41:43.682Z,18.27
2022-12-19T22:44:20.678Z,17.70
2022-12-19T22:46:52.574Z,16.63
2022-12-19T22:49:21.009Z,19.40
2022-12-19T22:52:00.361Z,17.10
2022-12-19T22:54:28.675Z,16.97
2022-12-19T22:56:58.714Z,16.53
2022-12-19T22:59:27.097Z,16.93
2022-12-19T23:01:59.055Z,17.03
2022-12-19T23:04:28.239Z,18.33
2022-12-19T23:06:57.835Z,15.93
2022-12-19T23:09:25.806Z,17.17
2022-12-19T23:11:53.731Z,21.07
2022-12-19T23:14:21.878Z,18.87
2022-12-19T23:16:49.970Z,17.03
2022-12-19T23:19:18.784Z,17.37
2022-12-19T23:21:47.181Z,17.13
2022-12-19T23:24:16.527Z,15.23
2022-12-19T23:26:44.430Z,15.30
2022-12-19T23:29:14.318Z,16.27
2022-12-19T23:31:43.049Z,16.33
2022-12-19T23:34:11.556Z,16.20
2022-12-19T23:39:29.578Z,15.00
2022-12-19T23:41:57.461Z,15.23
2022-12-19T23:44:26.074Z,15.47
2022-12-19T23:47:00.884Z,15.77
2022-12-19T23:49:30.966Z,15.50
2022-12-19T23:51:58.732Z,16.30
2022-12-19T23:54:26.660Z,15.43
2022-12-19T23:56:55.749Z,15.63
2022-12-19T23:59:23.463Z,15.90
